createdAt,value
2019-04-30T00:00:45.453Z,83.54
2019-04-30T00:01:43.117Z,83.04
2019-04-30T00:02:43.098Z,83.44
2019-04-30T00:03:43.123Z,83.44
2019-04-30T00:04:43.077Z,83.04
2019-04-30T00:05:44.989Z,83.24
2019-04-30T00:06:43.065Z,83.65
2019-04-30T00:07:43.053Z,83.89
2019-04-30T00:08:45.056Z,84.20
2019-04-30T00:09:44.854Z,84.06
2019-04-30T00:10:43.018Z,84.09
2019-04-30T00:11:43.027Z,84.16
2019-04-30T00:12:42.982Z,83.95
2019-04-30T00:13:43.004Z,84.26
2019-04-30T00:14:44.814Z,84.06
2019-04-30T00:15:42.954Z,83.85
2019-04-30T00:16:42.944Z,84.30
2019-04-30T00:17:42.930Z,84.61
2019-04-30T00:18:55.179Z,84.20
2019-04-30T00:19:45.480Z,84.50
2019-04-30T00:20:45.290Z,84.20
2019-04-30T00:21:42.899Z,84.91
2019-04-30T00:22:47.026Z,85.06
2019-04-30T00:23:45.798Z,84.61
2019-04-30T00:24:46.846Z,84.81
2019-04-30T00:25:45.586Z,84.91
2019-04-30T00:26:46.696Z,85.22
2019-04-30T00:27:45.595Z,85.63
2019-04-30T00:28:46.223Z,85.22
2019-04-30T00:29:42.821Z,85.73
2019-04-30T00:30:43.883Z,84.81
2019-04-30T00:31:42.776Z,84.47
2019-04-30T00:32:43.616Z,84.71
2019-04-30T00:33:42.758Z,85.53
2019-04-30T00:34:42.778Z,85.42
2019-04-30T00:35:42.733Z,85.32
2019-04-30T00:36:42.721Z,85.02
2019-04-30T00:37:42.725Z,85.36
2019-04-30T00:38:42.709Z,85.53
2019-04-30T00:39:44.343Z,84.91
2019-04-30T00:40:45.013Z,84.41
2019-04-30T00:41:44.048Z,84.30
2019-04-30T00:42:42.664Z,84.61
2019-04-30T00:43:49.304Z,84.71
2019-04-30T00:44:45.560Z,84.71
2019-04-30T00:45:44.878Z,84.71
2019-04-30T00:46:42.608Z,84.91
2019-04-30T00:47:44.526Z,84.61
2019-04-30T00:48:45.498Z,84.41
2019-04-30T00:49:42.606Z,84.50
2019-04-30T00:50:42.560Z,84.44
2019-04-30T00:51:42.551Z,84.20
2019-04-30T00:52:42.537Z,84.09
2019-04-30T00:53:43.787Z,84.20
2019-04-30T00:54:45.236Z,84.20
2019-04-30T00:55:46.768Z,83.79
2019-04-30T00:56:45.491Z,84.20
2019-04-30T00:57:44.541Z,84.20
2019-04-30T00:58:42.482Z,84.30
2019-04-30T00:59:46.568Z,84.20
2019-04-30T01:00:45.185Z,83.89
2019-04-30T01:01:43.480Z,83.89
2019-04-30T01:02:43.430Z,84.00
2019-04-30T01:03:46.366Z,83.73
2019-04-30T01:04:44.977Z,84.00
2019-04-30T01:05:46.464Z,83.59
2019-04-30T01:06:43.377Z,83.11
2019-04-30T01:07:48.823Z,82.91
2019-04-30T01:08:43.369Z,83.22
2019-04-30T01:09:46.491Z,82.97
2019-04-30T01:10:43.374Z,82.87
2019-04-30T01:11:44.783Z,81.95
2019-04-30T01:12:47.234Z,81.95
2019-04-30T01:13:50.167Z,81.54
2019-04-30T01:14:43.299Z,81.74
2019-04-30T01:15:44.019Z,81.44
2019-04-30T01:16:43.268Z,80.73
2019-04-30T01:17:45.325Z,80.73
2019-04-30T01:18:43.246Z,80.62
2019-04-30T01:19:46.061Z,80.11
2019-04-30T01:20:43.261Z,79.13
2019-04-30T01:21:46.983Z,79.23
2019-04-30T01:22:43.228Z,79.02
2019-04-30T01:23:51.739Z,79.19
2019-04-30T01:24:43.182Z,79.13
2019-04-30T01:25:43.100Z,79.43
2019-04-30T01:26:42.156Z,79.09
2019-04-30T01:27:45.834Z,79.09
2019-04-30T01:28:42.159Z,78.99
2019-04-30T01:29:44.412Z,79.19
2019-04-30T01:30:42.113Z,78.78
2019-04-30T01:31:42.159Z,78.99
2019-04-30T01:32:42.088Z,79.50
2019-04-30T01:33:42.097Z,79.60
2019-04-30T01:34:44.243Z,79.39
2019-04-30T01:35:43.058Z,80.07
2019-04-30T01:36:43.466Z,79.97
2019-04-30T01:37:43.072Z,80.79
2019-04-30T01:38:44.747Z,80.69
2019-04-30T01:39:43.020Z,81.10
2019-04-30T01:40:42.904Z,81.44
2019-04-30T01:41:42.174Z,81.95
2019-04-30T01:42:47.942Z,81.85
2019-04-30T01:43:42.981Z,82.50
2019-04-30T01:44:43.513Z,82.77
2019-04-30T01:45:42.949Z,82.87
2019-04-30T01:46:43.246Z,82.77
2019-04-30T01:47:42.938Z,82.87
2019-04-30T01:48:43.742Z,83.18
2019-04-30T01:49:44.863Z,82.36
2019-04-30T01:50:42.212Z,82.67
2019-04-30T01:51:41.905Z,83.07
2019-04-30T01:52:41.864Z,82.70
2019-04-30T01:53:43.587Z,83.11
2019-04-30T01:54:41.844Z,83.22
2019-04-30T01:55:41.833Z,83.42
2019-04-30T01:56:41.857Z,83.22
2019-04-30T01:57:41.811Z,83.07
2019-04-30T01:58:41.801Z,83.01
2019-04-30T01:59:41.784Z,81.68
2019-04-30T02:00:41.774Z,81.74
2019-04-30T02:01:41.794Z,81.34
2019-04-30T02:02:41.759Z,81.38
2019-04-30T02:03:41.741Z,80.76
2019-04-30T02:04:41.737Z,80.87
2019-04-30T02:05:41.722Z,81.07
2019-04-30T02:06:41.733Z,81.13
2019-04-30T02:07:41.701Z,80.73
2019-04-30T02:08:41.695Z,81.48
2019-04-30T02:09:41.685Z,81.58
2019-04-30T02:10:41.666Z,81.79
2019-04-30T02:11:41.707Z,81.48
2019-04-30T02:12:41.649Z,82.03
2019-04-30T02:13:41.647Z,81.88
2019-04-30T02:14:41.621Z,82.70
2019-04-30T02:15:41.612Z,82.91
2019-04-30T02:16:41.598Z,82.81
2019-04-30T02:17:41.610Z,83.36
2019-04-30T02:18:41.574Z,83.15
2019-04-30T02:19:41.563Z,82.60
2019-04-30T02:20:41.551Z,82.70
2019-04-30T02:21:41.540Z,82.84
2019-04-30T02:22:41.559Z,82.84
2019-04-30T02:23:41.536Z,82.95
2019-04-30T02:24:41.518Z,82.91
2019-04-30T02:25:41.494Z,82.91
2019-04-30T02:26:41.485Z,82.81
2019-04-30T02:27:41.515Z,83.15
2019-04-30T02:28:41.464Z,82.60
2019-04-30T02:29:41.457Z,82.95
2019-04-30T02:30:41.446Z,82.40
2019-04-30T02:31:41.431Z,83.15
2019-04-30T02:32:41.452Z,83.25
2019-04-30T02:33:41.433Z,82.95
2019-04-30T02:34:44.269Z,83.46
2019-04-30T02:35:41.398Z,83.25
2019-04-30T02:36:41.394Z,83.87
2019-04-30T02:37:43.552Z,84.11
2019-04-30T02:38:41.379Z,84.72
2019-04-30T02:39:41.348Z,84.42
2019-04-30T02:40:42.673Z,84.83
2019-04-30T02:41:41.577Z,84.83
2019-04-30T02:42:41.313Z,84.52
2019-04-30T02:43:41.333Z,84.83
2019-04-30T02:44:41.287Z,84.72
2019-04-30T02:45:41.275Z,85.17
2019-04-30T02:46:41.266Z,84.83
2019-04-30T02:47:41.253Z,84.83
2019-04-30T02:48:41.324Z,85.69
2019-04-30T02:49:41.236Z,84.87
2019-04-30T02:50:41.242Z,84.52
2019-04-30T02:51:41.205Z,84.77
2019-04-30T02:52:41.199Z,84.56
2019-04-30T02:53:41.210Z,84.52
2019-04-30T02:54:41.174Z,83.91
2019-04-30T02:55:41.160Z,84.01
2019-04-30T02:56:41.148Z,83.09
2019-04-30T02:57:41.137Z,83.29
2019-04-30T02:58:41.187Z,83.56
2019-04-30T02:59:41.116Z,83.70
2019-04-30T03:00:41.114Z,83.29
2019-04-30T03:01:41.097Z,83.50
2019-04-30T03:02:41.099Z,83.39
2019-04-30T03:03:42.647Z,83.09
2019-04-30T03:04:41.065Z,83.09
2019-04-30T03:05:41.050Z,83.09
2019-04-30T03:06:41.042Z,82.68
2019-04-30T03:07:41.081Z,82.57
2019-04-30T03:08:41.047Z,82.82
2019-04-30T03:09:41.004Z,82.92
2019-04-30T03:10:41.006Z,83.19
2019-04-30T03:11:41.196Z,83.23
2019-04-30T03:12:40.971Z,83.29
2019-04-30T03:13:42.843Z,83.13
2019-04-30T03:14:40.972Z,83.03
2019-04-30T03:15:40.943Z,83.19
2019-04-30T03:16:40.925Z,83.13
2019-04-30T03:17:40.922Z,83.23
2019-04-30T03:18:40.929Z,83.19
2019-04-30T03:19:40.923Z,82.57
2019-04-30T03:20:40.886Z,83.23
2019-04-30T03:21:40.875Z,83.29
2019-04-30T03:22:40.857Z,83.39
2019-04-30T03:23:40.874Z,82.78
2019-04-30T03:24:42.762Z,81.76
2019-04-30T03:25:40.839Z,82.37
2019-04-30T03:26:40.814Z,81.56
2019-04-30T03:27:42.569Z,81.65
2019-04-30T03:28:40.795Z,82.62
2019-04-30T03:29:40.892Z,83.23
2019-04-30T03:30:42.161Z,83.23
2019-04-30T03:31:43.840Z,83.44
2019-04-30T03:32:42.954Z,83.54
2019-04-30T03:33:42.416Z,83.44
2019-04-30T03:34:42.271Z,83.47
2019-04-30T03:35:46.730Z,83.23
2019-04-30T03:36:41.704Z,83.78
2019-04-30T03:37:40.818Z,83.54
2019-04-30T03:38:42.766Z,83.54
2019-04-30T03:39:40.700Z,83.23
2019-04-30T03:40:40.663Z,83.13
2019-04-30T03:41:41.591Z,83.44
2019-04-30T03:42:40.636Z,82.71
2019-04-30T03:43:40.623Z,82.78
2019-04-30T03:44:40.644Z,82.92
2019-04-30T03:45:40.612Z,82.62
2019-04-30T03:46:40.665Z,82.82
2019-04-30T03:47:43.262Z,82.35
2019-04-30T03:48:40.574Z,82.31
2019-04-30T03:49:40.586Z,82.10
2019-04-30T03:50:50.273Z,81.43
2019-04-30T03:51:41.567Z,81.70
2019-04-30T03:52:40.527Z,81.49
2019-04-30T03:53:42.679Z,81.32
2019-04-30T03:54:40.992Z,81.70
2019-04-30T03:56:41.639Z,81.18
2019-04-30T03:57:40.475Z,81.43
2019-04-30T03:58:40.456Z,81.43
2019-04-30T03:59:40.444Z,81.22
2019-04-30T04:00:42.545Z,81.32
2019-04-30T04:01:40.424Z,81.22
2019-04-30T04:02:40.821Z,81.63
2019-04-30T04:03:42.287Z,81.32
2019-04-30T04:04:40.405Z,81.43
2019-04-30T04:05:40.412Z,81.22
2019-04-30T04:06:40.375Z,81.52
2019-04-30T04:07:40.364Z,81.32
2019-04-30T04:08:43.206Z,81.73
2019-04-30T04:10:01.368Z,81.73
2019-04-30T04:10:40.528Z,81.57
2019-04-30T04:11:40.356Z,81.57
2019-04-30T04:12:40.330Z,81.98
2019-04-30T04:13:40.292Z,81.98
2019-04-30T04:14:40.282Z,82.18
2019-04-30T04:15:40.345Z,81.98
2019-04-30T04:16:41.128Z,82.18
2019-04-30T04:17:40.248Z,81.87
2019-04-30T04:18:40.427Z,82.18
2019-04-30T04:19:40.232Z,81.98
2019-04-30T04:20:42.832Z,82.18
2019-04-30T04:21:40.237Z,82.28
2019-04-30T04:22:40.473Z,82.49
2019-04-30T04:23:40.179Z,82.39
2019-04-30T04:24:40.325Z,81.94
2019-04-30T04:25:40.211Z,81.98
2019-04-30T04:26:43.388Z,82.69
2019-04-30T04:27:40.136Z,82.01
2019-04-30T04:28:43.282Z,83.31
2019-04-30T04:29:40.417Z,82.83
2019-04-30T04:30:42.978Z,83.31
2019-04-30T04:31:40.119Z,82.90
2019-04-30T04:32:40.869Z,82.73
2019-04-30T04:33:40.086Z,83.31
2019-04-30T04:34:40.177Z,83.00
2019-04-30T04:35:40.061Z,83.45
2019-04-30T04:36:43.422Z,83.51
2019-04-30T04:37:40.063Z,83.20
2019-04-30T04:38:40.443Z,83.10
2019-04-30T04:39:42.138Z,83.10
2019-04-30T04:40:40.186Z,83.20
2019-04-30T04:41:40.079Z,83.10
2019-04-30T04:42:40.025Z,82.90
2019-04-30T04:43:40.285Z,82.69
2019-04-30T04:44:40.080Z,82.79
2019-04-30T04:45:43.699Z,83.20
2019-04-30T04:46:40.279Z,83.92
2019-04-30T04:47:40.394Z,83.61
2019-04-30T04:48:40.014Z,83.61
2019-04-30T04:49:39.916Z,83.51
2019-04-30T04:50:40.204Z,83.82
2019-04-30T04:51:42.346Z,83.72
2019-04-30T04:52:39.902Z,83.72
2019-04-30T04:53:40.312Z,83.72
2019-04-30T04:54:40.047Z,83.51
2019-04-30T04:55:40.158Z,83.72
2019-04-30T04:56:40.079Z,83.58
2019-04-30T04:57:40.246Z,83.51
2019-04-30T04:58:40.300Z,83.58
2019-04-30T04:59:42.512Z,83.27
2019-04-30T05:00:39.799Z,82.86
2019-04-30T05:01:39.785Z,83.06
2019-04-30T05:02:39.880Z,83.27
2019-04-30T05:03:40.037Z,83.17
2019-04-30T05:04:40.147Z,83.47
2019-04-30T05:05:39.915Z,82.24
2019-04-30T05:06:39.713Z,82.14
2019-04-30T05:07:40.117Z,82.24
2019-04-30T05:08:39.729Z,82.45
2019-04-30T05:09:39.741Z,82.41
2019-04-30T05:10:39.660Z,82.00
2019-04-30T05:11:39.679Z,82.14
2019-04-30T05:12:39.985Z,82.04
2019-04-30T05:13:39.647Z,81.70
2019-04-30T05:14:39.617Z,81.70
2019-04-30T05:15:39.609Z,81.49
2019-04-30T05:16:39.598Z,81.49
2019-04-30T05:17:39.962Z,81.79
2019-04-30T05:18:39.604Z,81.94
2019-04-30T05:19:39.576Z,81.94
2019-04-30T05:20:41.587Z,81.73
2019-04-30T05:21:42.742Z,81.73
2019-04-30T05:22:40.590Z,81.73
2019-04-30T05:23:42.470Z,81.84
2019-04-30T05:24:40.857Z,81.22
2019-04-30T05:25:39.492Z,81.49
2019-04-30T05:26:39.506Z,80.98
2019-04-30T05:27:39.507Z,80.88
2019-04-30T05:28:39.498Z,80.77
2019-04-30T05:29:39.448Z,80.67
2019-04-30T05:30:39.450Z,80.81
2019-04-30T05:31:39.429Z,80.91
2019-04-30T05:32:39.417Z,81.12
2019-04-30T05:33:39.435Z,81.43
2019-04-30T05:34:39.397Z,81.01
2019-04-30T05:35:39.384Z,80.67
2019-04-30T05:36:39.372Z,80.57
2019-04-30T05:37:39.363Z,80.26
2019-04-30T05:38:39.382Z,79.38
2019-04-30T05:39:39.338Z,79.24
2019-04-30T05:40:39.914Z,79.24
2019-04-30T05:41:41.106Z,79.13
2019-04-30T05:42:39.313Z,78.21
2019-04-30T05:43:39.334Z,78.11
2019-04-30T05:44:39.598Z,78.01
2019-04-30T05:45:39.278Z,77.76
2019-04-30T05:46:39.798Z,78.21
2019-04-30T05:47:39.261Z,77.23
2019-04-30T05:48:39.769Z,78.21
2019-04-30T05:49:39.233Z,77.80
2019-04-30T05:50:39.243Z,78.01
2019-04-30T05:51:39.207Z,78.31
2019-04-30T05:52:39.901Z,77.70
2019-04-30T05:53:39.493Z,77.80
2019-04-30T05:54:39.172Z,77.91
2019-04-30T05:55:39.600Z,77.80
2019-04-30T05:56:39.885Z,77.70
2019-04-30T05:57:52.547Z,78.42
2019-04-30T05:58:40.172Z,77.60
2019-04-30T05:59:39.120Z,77.60
2019-04-30T06:00:39.958Z,77.70
2019-04-30T06:05:31.295Z,77.15
2019-04-30T06:06:33.566Z,77.26
2019-04-30T06:07:31.147Z,76.95
2019-04-30T06:08:31.173Z,76.54
2019-04-30T06:09:33.927Z,76.84
2019-04-30T06:10:31.198Z,76.75
2019-04-30T06:11:31.097Z,77.15
2019-04-30T06:12:31.091Z,76.54
2019-04-30T06:13:32.026Z,76.75
2019-04-30T06:14:31.105Z,76.81
2019-04-30T06:15:31.059Z,76.84
2019-04-30T06:16:31.049Z,77.36
2019-04-30T06:17:31.038Z,77.26
2019-04-30T06:18:31.019Z,77.15
2019-04-30T06:19:31.049Z,77.15
2019-04-30T06:20:31.002Z,76.95
2019-04-30T06:21:30.997Z,77.36
2019-04-30T06:22:30.979Z,77.22
2019-04-30T06:23:30.972Z,76.61
2019-04-30T06:24:31.000Z,76.61
2019-04-30T06:25:41.255Z,76.91
2019-04-30T06:26:31.938Z,77.01
2019-04-30T06:27:30.943Z,77.53
2019-04-30T06:28:30.922Z,77.01
2019-04-30T06:29:30.897Z,77.22
2019-04-30T06:30:30.918Z,77.19
2019-04-30T06:31:34.715Z,77.01
2019-04-30T06:32:31.869Z,76.67
2019-04-30T06:33:30.860Z,76.57
2019-04-30T06:34:30.878Z,76.47
2019-04-30T06:35:30.836Z,75.62
2019-04-30T06:36:30.829Z,75.71
2019-04-30T06:37:31.619Z,74.90
2019-04-30T06:38:30.802Z,75.21
2019-04-30T06:39:30.960Z,75.71
2019-04-30T06:40:30.805Z,75.62
2019-04-30T06:41:30.765Z,75.31
2019-04-30T06:42:30.756Z,75.31
2019-04-30T06:43:30.834Z,75.00
2019-04-30T06:44:37.495Z,74.39
2019-04-30T06:45:31.871Z,74.29
2019-04-30T06:46:30.711Z,75.14
2019-04-30T06:47:33.037Z,75.24
2019-04-30T06:48:30.685Z,75.59
2019-04-30T06:49:30.680Z,75.79
2019-04-30T06:50:30.688Z,76.09
2019-04-30T06:51:30.890Z,75.34
2019-04-30T06:52:30.651Z,74.97
2019-04-30T06:53:30.642Z,75.59
2019-04-30T06:54:30.625Z,75.34
2019-04-30T06:55:30.991Z,75.85
2019-04-30T06:56:30.599Z,75.24
2019-04-30T06:57:30.585Z,75.21
2019-04-30T06:58:30.580Z,75.00
2019-04-30T06:59:30.566Z,74.97
2019-04-30T07:00:35.076Z,74.05
2019-04-30T07:01:38.897Z,74.25
2019-04-30T07:02:30.944Z,73.68
2019-04-30T07:03:30.517Z,73.44
2019-04-30T07:04:30.513Z,73.23
2019-04-30T07:05:30.525Z,72.82
2019-04-30T07:06:36.722Z,72.82
2019-04-30T07:07:38.721Z,72.92
2019-04-30T07:08:39.605Z,73.23
2019-04-30T07:09:36.383Z,72.96
2019-04-30T07:10:31.474Z,73.36
2019-04-30T07:11:30.441Z,73.74
2019-04-30T07:12:31.500Z,73.94
2019-04-30T07:13:30.409Z,73.23
2019-04-30T07:14:30.395Z,73.10
2019-04-30T07:15:30.409Z,72.92
2019-04-30T07:16:30.402Z,72.21
2019-04-30T07:17:30.362Z,72.28
2019-04-30T07:18:30.351Z,71.67
2019-04-30T07:19:38.247Z,71.77
2019-04-30T07:20:34.059Z,71.36
2019-04-30T07:21:31.597Z,71.46
2019-04-30T07:22:39.955Z,71.73
2019-04-30T07:23:31.293Z,71.33
2019-04-30T07:24:30.333Z,71.97
2019-04-30T07:25:30.292Z,71.33
2019-04-30T07:26:30.284Z,71.63
2019-04-30T07:27:32.324Z,71.43
2019-04-30T07:28:43.326Z,71.46
2019-04-30T07:29:31.227Z,71.33
2019-04-30T07:30:30.909Z,71.33
2019-04-30T07:31:30.228Z,71.33
2019-04-30T07:32:30.209Z,71.33
2019-04-30T07:33:30.176Z,70.78
2019-04-30T07:34:36.580Z,70.27
2019-04-30T07:35:31.158Z,70.89
2019-04-30T07:36:45.786Z,70.68
2019-04-30T07:37:31.147Z,70.57
2019-04-30T07:38:30.124Z,70.54
2019-04-30T07:39:33.323Z,70.85
2019-04-30T07:40:30.112Z,69.83
2019-04-30T07:41:31.195Z,69.83
2019-04-30T07:42:30.088Z,70.65
2019-04-30T07:43:30.067Z,70.24
2019-04-30T07:44:36.235Z,69.53
2019-04-30T07:45:32.172Z,69.83
2019-04-30T07:46:34.754Z,69.42
2019-04-30T07:47:30.053Z,69.12
2019-04-30T07:48:30.031Z,70.27
2019-04-30T07:49:46.535Z,70.48
2019-04-30T07:50:31.957Z,70.27
2019-04-30T07:51:32.059Z,70.57
2019-04-30T07:52:34.288Z,71.09
2019-04-30T07:53:30.962Z,70.57
2019-04-30T07:54:30.166Z,70.98
2019-04-30T07:55:29.930Z,70.92
2019-04-30T07:56:37.257Z,71.12
2019-04-30T07:57:32.359Z,71.33
2019-04-30T07:58:29.979Z,71.84
2019-04-30T07:59:30.249Z,71.09
2019-04-30T08:00:31.274Z,71.60
2019-04-30T08:01:29.861Z,70.68
2019-04-30T08:02:36.092Z,70.37
2019-04-30T08:03:31.151Z,70.27
2019-04-30T08:04:29.848Z,70.14
2019-04-30T08:05:29.997Z,70.85
2019-04-30T08:06:31.126Z,70.34
2019-04-30T08:07:30.254Z,70.48
2019-04-30T08:08:30.465Z,70.78
2019-04-30T08:09:39.215Z,71.09
2019-04-30T08:10:30.768Z,70.98
2019-04-30T08:11:34.466Z,70.57
2019-04-30T08:12:35.047Z,70.37
2019-04-30T08:13:32.826Z,70.54
2019-04-30T08:14:29.723Z,69.96
2019-04-30T08:15:29.706Z,70.14
2019-04-30T08:16:29.698Z,69.63
2019-04-30T08:17:29.721Z,69.93
2019-04-30T08:18:29.679Z,69.63
2019-04-30T08:19:29.660Z,69.29
2019-04-30T08:20:29.686Z,72.72
2019-04-30T08:21:29.643Z,72.89
2019-04-30T08:22:29.806Z,70.18
2019-04-30T08:23:34.847Z,67.22
2019-04-30T08:24:30.597Z,67.88
2019-04-30T08:25:29.587Z,68.08
2019-04-30T08:26:29.580Z,67.61
2019-04-30T08:27:29.710Z,64.33
2019-04-30T08:28:30.442Z,62.71
2019-04-30T08:29:29.591Z,63.24
2019-04-30T08:30:30.120Z,63.14
2019-04-30T08:31:29.535Z,64.18
2019-04-30T08:32:29.536Z,64.62
2019-04-30T08:33:29.528Z,65.57
2019-04-30T08:34:29.533Z,66.52
2019-04-30T08:35:29.707Z,67.69
2019-04-30T08:36:29.934Z,68.04
2019-04-30T08:37:29.479Z,69.59
2019-04-30T08:38:30.031Z,70.92
2019-04-30T08:39:31.795Z,70.28
2019-04-30T08:40:29.787Z,69.46
2019-04-30T08:41:29.525Z,69.06
2019-04-30T08:42:33.883Z,67.83
2019-04-30T08:43:30.550Z,68.54
2019-04-30T08:44:29.690Z,69.36
2019-04-30T08:45:33.129Z,68.85
2019-04-30T08:46:30.368Z,69.23
2019-04-30T08:47:29.357Z,69.43
2019-04-30T08:48:43.028Z,68.82
2019-04-30T08:49:31.082Z,68.71
2019-04-30T08:50:30.034Z,68.41
2019-04-30T08:51:31.199Z,70.01
2019-04-30T08:52:30.481Z,67.57
2019-04-30T08:53:33.230Z,67.57
2019-04-30T08:54:29.565Z,67.60
2019-04-30T08:55:30.437Z,68.54
2019-04-30T08:56:29.734Z,69.15
2019-04-30T08:57:29.442Z,69.15
2019-04-30T08:58:29.370Z,69.06
2019-04-30T08:59:29.573Z,68.34
2019-04-30T09:00:29.735Z,68.75
2019-04-30T09:01:29.584Z,68.62
2019-04-30T09:02:29.250Z,69.12
2019-04-30T09:03:29.670Z,68.31
2019-04-30T09:04:29.235Z,67.77
2019-04-30T09:05:30.624Z,67.63
2019-04-30T09:06:29.805Z,66.55
2019-04-30T09:07:29.738Z,66.21
2019-04-30T09:08:29.506Z,66.72
2019-04-30T09:09:29.635Z,67.16
2019-04-30T09:10:29.487Z,66.72
2019-04-30T09:11:35.516Z,66.31
2019-04-30T09:12:30.086Z,65.70
2019-04-30T09:13:29.076Z,66.38
2019-04-30T09:14:29.749Z,68.24
2019-04-30T09:15:29.194Z,71.57
2019-04-30T09:16:29.571Z,69.26
2019-04-30T09:17:29.692Z,67.41
2019-04-30T09:18:29.270Z,64.43
2019-04-30T09:19:29.833Z,67.34
2019-04-30T09:20:29.232Z,66.60
2019-04-30T09:21:29.989Z,65.62
2019-04-30T09:22:29.385Z,63.57
2019-04-30T09:23:43.030Z,62.93
2019-04-30T09:24:31.070Z,60.63
2019-04-30T09:25:28.929Z,60.81
2019-04-30T09:26:29.206Z,60.07
2019-04-30T09:27:29.659Z,60.88
2019-04-30T09:28:29.440Z,61.01
2019-04-30T09:29:29.371Z,58.99
2019-04-30T09:30:29.901Z,61.65
2019-04-30T09:31:29.625Z,59.80
2019-04-30T09:32:29.182Z,60.81
2019-04-30T09:33:29.422Z,60.41
2019-04-30T09:34:29.236Z,60.71
2019-04-30T09:35:31.766Z,60.10
2019-04-30T09:36:29.366Z,60.23
2019-04-30T09:37:30.560Z,62.05
2019-04-30T09:38:29.104Z,60.13
2019-04-30T09:39:29.578Z,59.78
2019-04-30T09:40:32.187Z,60.19
2019-04-30T09:41:28.903Z,60.62
2019-04-30T09:42:29.623Z,61.90
2019-04-30T09:43:28.770Z,63.58
2019-04-30T09:44:30.743Z,63.98
2019-04-30T09:45:28.693Z,64.97
2019-04-30T09:46:29.912Z,63.45
2019-04-30T09:47:29.581Z,62.05
2019-04-30T09:48:30.508Z,61.52
2019-04-30T09:49:29.425Z,63.75
2019-04-30T09:50:29.244Z,62.30
2019-04-30T09:51:30.501Z,63.72
2019-04-30T09:52:30.704Z,63.72
2019-04-30T09:53:29.803Z,63.32
2019-04-30T09:54:29.417Z,64.06
2019-04-30T09:55:29.176Z,67.58
2019-04-30T09:56:29.433Z,64.61
2019-04-30T09:57:29.040Z,63.66
2019-04-30T09:58:29.943Z,61.68
2019-04-30T09:59:29.146Z,60.74
2019-04-30T10:00:29.539Z,59.97
2019-04-30T10:01:28.518Z,58.30
2019-04-30T10:02:29.105Z,57.46
2019-04-30T10:03:30.698Z,57.36
2019-04-30T10:04:30.342Z,57.82
2019-04-30T10:05:29.231Z,59.16
2019-04-30T10:06:39.075Z,59.42
2019-04-30T10:07:29.457Z,59.85
2019-04-30T10:08:30.745Z,59.85
2019-04-30T10:09:29.317Z,59.75
2019-04-30T10:10:28.897Z,59.75
2019-04-30T10:11:28.422Z,60.08
2019-04-30T10:12:29.400Z,60.08
2019-04-30T10:13:28.387Z,60.93
2019-04-30T10:14:28.392Z,61.00
2019-04-30T10:15:28.928Z,60.89
2019-04-30T10:16:29.650Z,60.86
2019-04-30T10:17:28.332Z,59.75
2019-04-30T10:18:28.338Z,59.01
2019-04-30T10:19:29.268Z,59.32
2019-04-30T10:20:28.323Z,59.19
2019-04-30T10:21:29.006Z,58.51
2019-04-30T10:22:28.295Z,59.09
2019-04-30T10:23:30.222Z,60.45
2019-04-30T10:24:29.467Z,58.93
2019-04-30T10:25:28.241Z,57.82
2019-04-30T10:26:28.280Z,57.59
2019-04-30T10:27:29.347Z,56.85
2019-04-30T10:28:28.227Z,55.92
2019-04-30T10:29:28.192Z,56.10
2019-04-30T10:30:29.218Z,55.26
2019-04-30T10:31:29.320Z,54.91
2019-04-30T10:32:30.012Z,55.85
2019-04-30T10:33:28.692Z,56.40
2019-04-30T10:34:28.143Z,56.61
2019-04-30T10:35:28.646Z,58.00
2019-04-30T10:36:29.555Z,58.31
2019-04-30T10:37:28.725Z,59.01
2019-04-30T10:38:29.358Z,58.05
2019-04-30T10:39:29.700Z,57.65
2019-04-30T10:40:28.751Z,60.45
2019-04-30T10:41:28.749Z,58.50
2019-04-30T10:42:28.867Z,56.76
2019-04-30T10:43:29.393Z,56.25
2019-04-30T10:44:29.851Z,52.89
2019-04-30T10:45:28.814Z,56.15
2019-04-30T10:46:28.028Z,56.45
2019-04-30T10:47:29.380Z,56.73
2019-04-30T10:48:27.982Z,56.50
2019-04-30T10:49:29.192Z,56.40
2019-04-30T10:50:27.965Z,57.31
2019-04-30T10:51:28.824Z,56.37
2019-04-30T10:52:29.252Z,56.48
2019-04-30T10:53:27.925Z,55.34
2019-04-30T10:54:28.983Z,54.43
2019-04-30T10:55:28.711Z,55.94
2019-04-30T10:56:29.154Z,53.30
2019-04-30T10:57:28.539Z,54.91
2019-04-30T10:58:27.876Z,53.30
2019-04-30T10:59:27.875Z,53.80
2019-04-30T11:00:28.647Z,53.32
2019-04-30T11:01:29.203Z,53.02
2019-04-30T11:02:28.819Z,54.28
2019-04-30T11:03:29.143Z,55.97
2019-04-30T11:04:27.805Z,54.36
2019-04-30T11:05:29.263Z,53.63
2019-04-30T11:06:27.800Z,52.54
2019-04-30T11:07:28.851Z,53.60
2019-04-30T11:08:27.763Z,53.20
2019-04-30T11:09:30.659Z,54.38
2019-04-30T11:10:28.644Z,55.90
2019-04-30T11:11:28.290Z,56.07
2019-04-30T11:12:29.222Z,53.32
2019-04-30T11:13:27.708Z,53.30
2019-04-30T11:14:27.694Z,52.59
2019-04-30T11:15:29.191Z,52.97
2019-04-30T11:16:29.686Z,51.76
2019-04-30T11:17:29.713Z,50.76
2019-04-30T11:18:27.870Z,51.66
2019-04-30T11:19:29.239Z,52.67
2019-04-30T11:20:29.684Z,50.65
2019-04-30T11:21:29.395Z,50.35
2019-04-30T11:22:27.845Z,51.81
2019-04-30T11:23:29.420Z,51.40
2019-04-30T11:24:36.559Z,51.91
2019-04-30T11:25:30.863Z,52.51
2019-04-30T11:26:31.137Z,52.39
2019-04-30T11:27:30.063Z,49.59
2019-04-30T11:28:28.508Z,49.69
2019-04-30T11:29:30.581Z,50.68
2019-04-30T11:30:29.512Z,49.87
2019-04-30T11:31:27.687Z,50.25
2019-04-30T11:32:27.771Z,49.44
2019-04-30T11:33:27.725Z,50.35
2019-04-30T11:34:28.257Z,49.15
2019-04-30T11:35:29.523Z,49.04
2019-04-30T11:36:29.036Z,48.74
2019-04-30T11:37:27.458Z,47.41
2019-04-30T11:38:27.419Z,47.51
2019-04-30T11:39:27.413Z,47.61
2019-04-30T11:40:34.486Z,47.51
2019-04-30T11:41:32.859Z,47.61
2019-04-30T11:42:27.398Z,46.40
2019-04-30T11:43:29.403Z,46.70
2019-04-30T11:44:31.317Z,46.50
2019-04-30T11:45:29.295Z,47.49
2019-04-30T11:46:28.695Z,45.47
2019-04-30T11:47:27.316Z,46.48
2019-04-30T11:48:28.911Z,45.67
2019-04-30T11:49:27.324Z,45.98
2019-04-30T11:50:30.009Z,49.37
2019-04-30T11:51:29.377Z,44.32
2019-04-30T11:52:27.274Z,44.91
2019-04-30T11:53:28.824Z,44.51
2019-04-30T11:54:27.268Z,45.61
2019-04-30T11:55:29.107Z,45.51
2019-04-30T11:56:27.238Z,46.09
2019-04-30T11:57:27.209Z,47.30
2019-04-30T11:58:30.355Z,47.30
2019-04-30T11:59:27.225Z,46.65
2019-04-30T12:00:27.230Z,45.45
2019-04-30T12:01:27.214Z,45.54
2019-04-30T12:02:29.188Z,46.39
2019-04-30T12:03:30.095Z,47.85
2019-04-30T12:04:29.692Z,47.64
2019-04-30T12:05:28.910Z,48.44
2019-04-30T12:06:28.557Z,47.14
2019-04-30T12:07:27.105Z,50.35
2019-04-30T12:08:29.250Z,47.64
2019-04-30T12:09:28.507Z,46.26
2019-04-30T12:10:27.065Z,47.26
2019-04-30T12:11:27.057Z,47.39
2019-04-30T12:12:28.830Z,47.20
2019-04-30T12:13:27.029Z,47.20
2019-04-30T12:14:27.066Z,46.40
2019-04-30T12:15:29.006Z,46.40
2019-04-30T12:16:28.537Z,48.49
2019-04-30T12:17:26.990Z,45.57
2019-04-30T12:18:27.007Z,45.86
2019-04-30T12:19:28.649Z,42.44
2019-04-30T12:20:27.021Z,42.92
2019-04-30T12:21:26.963Z,41.91
2019-04-30T12:22:26.936Z,40.11
2019-04-30T12:23:26.924Z,41.51
2019-04-30T12:24:30.231Z,42.11
2019-04-30T12:25:26.930Z,42.61
2019-04-30T12:26:28.821Z,43.82
2019-04-30T12:27:28.733Z,44.04
2019-04-30T12:28:27.397Z,44.15
2019-04-30T12:29:29.021Z,44.45
2019-04-30T12:30:28.585Z,43.12
2019-04-30T12:31:26.827Z,44.51
2019-04-30T12:32:26.819Z,44.31
2019-04-30T12:33:26.806Z,45.29
2019-04-30T12:34:26.811Z,42.47
2019-04-30T12:35:26.894Z,44.28
2019-04-30T12:36:28.787Z,44.08
2019-04-30T12:37:26.771Z,44.85
2019-04-30T12:38:26.757Z,45.75
2019-04-30T12:39:29.795Z,46.46
2019-04-30T12:40:30.070Z,45.86
2019-04-30T12:41:27.735Z,44.83
2019-04-30T12:42:28.550Z,44.15
2019-04-30T12:43:26.694Z,44.17
2019-04-30T12:44:26.689Z,44.67
2019-04-30T12:45:26.708Z,44.47
2019-04-30T12:46:28.786Z,43.84
2019-04-30T12:47:26.665Z,44.04
2019-04-30T12:48:26.652Z,45.53
2019-04-30T12:49:28.731Z,44.73
2019-04-30T12:50:26.658Z,44.51
2019-04-30T12:51:26.611Z,43.90
2019-04-30T12:52:26.596Z,43.72
2019-04-30T12:53:26.592Z,44.40
2019-04-30T12:54:26.577Z,44.40
2019-04-30T12:55:26.608Z,43.68
2019-04-30T12:56:27.265Z,43.66
2019-04-30T12:57:26.580Z,43.96